Time;durP1;ratioP1;P1;durP2;ratioP2;P2;SDS_P1;SDS_P2;PMS_P1;PMS_P2;Temp;Humidity;BMP_temperature;BMP_pressure;BME280_temperature;BME280_humidity;BME280_pressure;Samples;Min_cycle;Max_cycle;Signal;HPM_P1;HPM_P2
2022/03/07 00:04:07;;;;;;;31.37;15.35;;;;;;;1.43;43.97;100073.56;7707700;32;38030;-74
2022/03/07 00:08:24;;;;;;;30.85;16.55;;;;;;;1.53;43.56;100075.84;7708322;32;38498;-74
2022/03/07 00:12:51;;;;;;;29.80;16.45;;;;;;;1.35;43.98;100079.97;7708885;32;39058;-74
2022/03/07 00:17:07;;;;;;;31.10;16.17;;;;;;;1.46;43.90;100092.78;7711162;32;41218;-74
2022/03/07 00:21:23;;;;;;;27.80;15.65;;;;;;;1.22;44.35;100091.50;7711609;32;38017;-74
2022/03/07 00:25:39;;;;;;;26.65;15.15;;;;;;;1.43;43.91;100082.47;7711485;32;38027;-74
2022/03/07 00:29:55;;;;;;;32.38;15.90;;;;;;;1.45;43.70;100095.66;7711520;32;40196;-75
2022/03/07 00:34:12;;;;;;;29.40;15.63;;;;;;;1.33;43.92;100091.94;7709098;32;40090;-74
2022/03/07 00:38:29;;;;;;;28.50;15.88;;;;;;;1.23;44.02;100089.66;7684731;32;38791;-74
2022/03/07 00:42:45;;;;;;;28.92;15.20;;;;;;;1.39;43.73;100075.84;7684706;32;38214;-74
2022/03/07 00:47:01;;;;;;;28.80;16.37;;;;;;;1.04;44.68;100088.59;7684848;32;39126;-74
2022/03/07 00:51:17;;;;;;;36.85;15.75;;;;;;;1.00;44.66;100087.31;7684490;32;39733;-74
2022/03/07 00:55:33;;;;;;;30.83;15.55;;;;;;;0.95;44.62;100090.63;7684594;32;37733;-74
2022/03/07 00:59:49;;;;;;;30.92;16.08;;;;;;;1.06;44.57;100086.50;7684682;32;37189;-75
2022/03/07 01:04:05;;;;;;;27.37;15.07;;;;;;;0.98;44.88;100078.63;7686139;32;39872;-73
2022/03/07 01:08:22;;;;;;;29.33;16.50;;;;;;;0.67;45.35;100078.13;7711101;32;39675;-74
2022/03/07 01:12:39;;;;;;;29.75;17.00;;;;;;;0.78;45.28;100073.19;7709705;32;37977;-74
2022/03/07 01:16:55;;;;;;;27.20;15.18;;;;;;;0.90;45.08;100075.09;7710700;32;37341;-74
2022/03/07 01:21:12;;;;;;;28.05;15.13;;;;;;;0.83;45.31;100076.09;7710859;32;39894;-74
2022/03/07 01:25:29;;;;;;;29.15;14.25;;;;;;;0.86;44.91;100075.69;7708570;32;39974;-74
2022/03/07 01:29:45;;;;;;;30.75;16.15;;;;;;;0.93;44.72;100069.34;7710790;32;37759;-74
2022/03/07 01:34:01;;;;;;;30.35;16.30;;;;;;;0.78;45.11;100062.44;7708955;32;37730;-74
2022/03/07 01:38:17;;;;;;;26.30;16.33;;;;;;;0.70;45.23;100069.66;7684029;32;39297;-73
2022/03/07 01:42:33;;;;;;;29.77;15.93;;;;;;;0.69;45.46;100065.34;7683901;32;39591;-74
2022/03/07 01:46:50;;;;;;;26.15;15.88;;;;;;;0.60;45.71;100063.81;7683754;32;37949;-74
2022/03/07 01:51:10;;;;;;;28.77;15.95;;;;;;;0.72;45.46;100054.16;7683623;32;37910;-74
2022/03/07 01:55:26;;;;;;;27.08;14.05;;;;;;;0.75;45.19;100048.41;7683490;32;39368;-74
2022/03/07 01:59:42;;;;;;;27.58;14.85;;;;;;;0.75;45.42;100051.09;7683615;32;39951;-74
2022/03/07 02:03:58;;;;;;;26.50;15.25;;;;;;;0.78;45.32;100052.56;7684135;32;37949;-74
2022/03/07 02:08:15;;;;;;;28.60;14.98;;;;;;;0.46;46.01;100056.75;7683280;32;38768;-74
2022/03/07 02:12:31;;;;;;;27.42;14.75;;;;;;;0.66;45.29;100052.31;7684834;32;40015;-72
2022/03/07 02:16:48;;;;;;;25.17;15.07;;;;;;;0.42;45.74;100052.81;7709736;32;39873;-74
2022/03/07 02:21:11;;;;;;;28.87;14.95;;;;;;;0.64;45.26;100046.31;7709644;32;38252;-74
2022/03/07 02:25:27;;;;;;;;;;;;;;;0.62;45.34;100042.16;7708860;32;37749;-74
2022/03/07 02:29:43;;;;;;;33.05;15.50;;;;;;;0.37;45.85;100048.03;7709844;32;39191;-73
2022/03/07 02:34:00;;;;;;;25.42;14.25;;;;;;;0.25;46.41;100046.94;7706493;32;40807;-74
2022/03/07 02:38:16;;;;;;;26.33;14.80;;;;;;;0.12;46.91;100047.69;7686058;32;38078;-74
2022/03/07 02:42:32;;;;;;;26.62;15.57;;;;;;;0.10;46.91;100049.75;7685987;32;37210;-74
2022/03/07 02:46:49;;;;;;;30.15;16.00;;;;;;;0.28;46.25;100050.06;7685987;32;39257;-74
2022/03/07 02:51:06;;;;;;;30.25;15.57;;;;;;;0.16;46.67;100055.16;7685695;32;39689;-74
2022/03/07 02:55:23;;;;;;;30.50;15.43;;;;;;;0.09;46.90;100053.47;7685671;32;38661;-73
2022/03/07 02:59:39;;;;;;;28.15;16.33;;;;;;;-0.11;47.35;100058.69;7684776;32;37638;-74
2022/03/07 03:03:55;;;;;;;29.83;16.27;;;;;;;0.05;46.89;100063.72;7686673;32;40147;-73
2022/03/07 03:08:11;;;;;;;28.65;15.68;;;;;;;-0.21;47.57;100069.72;7686214;32;39724;-73
2022/03/07 03:12:27;;;;;;;24.40;15.43;;;;;;;-0.04;47.10;100071.09;7686545;32;38060;-74
2022/03/07 03:16:43;;;;;;;31.48;16.02;;;;;;;-0.31;47.84;100071.91;7685651;32;37177;-74
2022/03/07 03:21:00;;;;;;;29.98;16.83;;;;;;;-0.38;48.38;100074.53;7685613;32;40317;-74
2022/03/07 03:25:16;;;;;;;26.83;15.45;;;;;;;-0.28;48.09;100079.56;7685501;32;39819;-73
2022/03/07 03:29:32;;;;;;;32.22;17.23;;;;;;;-0.15;47.90;100085.06;7685376;32;38050;-73
2022/03/07 03:33:49;;;;;;;31.98;17.73;;;;;;;-0.36;48.39;100085.91;7688476;32;38173;-74
2022/03/07 03:38:08;;;;;;;27.02;16.15;;;;;;;-0.20;48.02;100072.22;7712085;32;39451;-74
2022/03/07 03:42:24;;;;;;;28.77;17.10;;;;;;;-0.19;47.97;100078.41;7712103;32;39898;-74
2022/03/07 03:46:41;;;;;;;31.48;16.40;;;;;;;-0.01;47.71;100078.75;7711425;32;37916;-74
2022/03/07 03:50:57;;;;;;;33.30;17.80;;;;;;;0.15;47.10;100074.94;7711838;32;37970;-74
2022/03/07 03:55:15;;;;;;;32.22;16.23;;;;;;;0.11;47.07;100078.22;7711973;32;39402;-73
2022/03/07 03:59:33;;;;;;;30.40;16.15;;;;;;;-0.03;47.32;100078.13;7711976;32;39974;-73
2022/03/07 04:03:49;;;;;;;32.25;17.02;;;;;;;0.23;46.76;100076.66;7710164;32;37965;-72
2022/03/07 04:08:05;;;;;;;27.05;14.98;;;;;;;0.17;46.74;100083.63;7711844;32;37010;-73
2022/03/07 04:12:21;;;;;;;32.83;17.27;;;;;;;0.37;46.54;100073.00;7711689;32;40086;-74
2022/03/07 04:16:38;;;;;;;31.80;16.35;;;;;;;0.18;47.22;100073.72;7711582;32;39863;-73
2022/03/07 04:20:55;;;;;;;31.37;16.52;;;;;;;-0.05;48.06;100079.34;7711586;32;38033;-74
2022/03/07 04:25:12;;;;;;;29.17;16.70;;;;;;;0.10;47.59;100076.56;7711712;32;37313;-74
2022/03/07 04:29:28;;;;;;;29.63;16.80;;;;;;;-0.31;48.40;100079.97;7711600;32;40155;-74
2022/03/07 04:33:44;;;;;;;51.03;24.98;;;;;;;-0.11;47.99;100080.94;7707787;32;39920;-73
2022/03/07 04:38:01;;;;;;;82.90;39.97;;;;;;;0.13;47.62;100087.72;7684785;32;38014;-73
2022/03/07 04:42:17;;;;;;;41.05;25.40;;;;;;;-0.08;48.29;100082.44;7710921;32;36808;-73
2022/03/07 04:46:33;;;;;;;57.25;30.42;;;;;;;-0.19;48.48;100073.03;7711472;32;39376;-73
2022/03/07 04:50:50;;;;;;;40.00;23.98;;;;;;;-0.26;48.61;100078.38;7711146;32;40053;-73
2022/03/07 04:55:06;;;;;;;34.88;19.55;;;;;;;-0.32;48.69;100072.97;7711138;32;38317;-74
2022/03/07 04:59:23;;;;;;;31.95;17.62;;;;;;;-0.45;49.21;100079.00;7711033;32;38184;-74
2022/03/07 05:03:39;;;;;;;32.33;17.83;;;;;;;-0.40;49.08;100066.72;7706335;32;39423;-74
2022/03/07 05:07:55;;;;;;;44.15;22.50;;;;;;;-0.36;49.07;100075.19;7684587;32;40004;-74
2022/03/07 05:12:12;;;;;;;34.53;18.17;;;;;;;-0.45;49.40;100071.81;7684457;32;38859;-74
2022/03/07 05:16:28;;;;;;;32.28;17.67;;;;;;;-0.15;48.30;100060.94;7684758;32;35473;-74
2022/03/07 05:20:44;;;;;;;31.67;16.58;;;;;;;-0.26;48.37;100064.13;7684395;32;40103;-72
2022/03/07 05:25:13;;;;;;;35.20;17.62;;;;;;;-0.19;48.31;100075.72;7684317;32;39494;-73
2022/03/07 05:29:29;;;;;;;31.70;17.83;;;;;;;-0.40;48.89;100081.94;7684142;32;37838;-73
2022/03/07 05:33:45;;;;;;;31.98;17.52;;;;;;;-0.13;48.41;100076.81;7688339;32;37387;-73
2022/03/07 05:38:02;;;;;;;37.08;19.67;;;;;;;-0.26;48.42;100083.72;7710281;32;40107;-73
2022/03/07 05:42:18;;;;;;;43.60;21.75;;;;;;;0.04;48.14;100085.41;7710602;32;40065;-73
2022/03/07 05:46:34;;;;;;;34.13;18.67;;;;;;;-0.15;48.63;100090.41;7710468;32;38690;-73
2022/03/07 05:50:50;;;;;;;34.95;17.83;;;;;;;0.17;47.57;100102.41;7710334;32;37153;-73
2022/03/07 05:55:07;;;;;;;30.75;17.60;;;;;;;-0.11;48.84;100097.03;7710357;32;40177;-72
2022/03/07 05:59:23;;;;;;;31.30;17.30;;;;;;;0.20;47.90;100100.34;7710267;32;40976;-73
2022/03/07 06:03:40;;;;;;;34.20;17.30;;;;;;;-0.24;49.12;100091.59;7705971;32;37960;-72
2022/03/07 06:07:56;;;;;;;32.70;17.08;;;;;;;-0.03;48.29;100099.56;7683513;32;37296;-73
2022/03/07 06:12:12;;;;;;;31.45;17.67;;;;;;;0.01;48.34;100096.50;7682959;32;39537;-73
2022/03/07 06:16:28;;;;;;;30.05;16.92;;;;;;;0.14;48.23;100096.59;7683253;32;40887;-73
2022/03/07 06:20:44;;;;;;;34.25;17.90;;;;;;;0.37;47.60;100099.00;7683153;32;37951;-73
2022/03/07 06:25:00;;;;;;;32.08;16.25;;;;;;;0.15;47.93;100119.69;7683183;32;37404;-73
2022/03/07 06:29:17;;;;;;;36.58;16.70;;;;;;;0.25;47.57;100114.81;7683156;32;39482;-74
2022/03/07 06:33:33;;;;;;;40.97;19.75;;;;;;;0.33;48.28;100111.16;7683651;32;41308;-73
2022/03/07 06:37:51;;;;;;;35.75;19.27;;;;;;;0.41;47.47;100099.44;7682778;32;38645;-73
2022/03/07 06:42:07;;;;;;;38.67;19.27;;;;;;;0.37;47.58;100104.38;7682643;32;38015;-73
2022/03/07 06:46:23;;;;;;;40.83;19.30;;;;;;;0.26;47.76;100095.03;7682696;32;39016;-73
2022/03/07 06:50:39;;;;;;;36.15;19.30;;;;;;;0.89;47.26;100096.78;7682234;32;40777;-73
2022/03/07 06:54:55;;;;;;;34.13;19.33;;;;;;;0.73;46.78;100093.41;7682350;32;37991;-73
2022/03/07 06:59:12;;;;;;;36.38;18.73;;;;;;;0.90;46.48;100091.22;7682342;32;37208;-72
2022/03/07 07:03:28;;;;;;;29.80;17.33;;;;;;;1.40;48.23;100084.75;7682253;32;39412;-72
2022/03/07 07:07:45;;;;;;;33.33;17.85;;;;;;;1.66;47.51;100092.00;7682198;32;39998;-70
2022/03/07 07:12:01;;;;;;;34.60;17.55;;;;;;;2.03;45.06;100087.00;7682116;32;37991;-69
2022/03/07 07:16:17;;;;;;;34.78;18.35;;;;;;;2.10;44.71;100113.91;7682004;32;37939;-69
2022/03/07 07:20:33;;;;;;;34.00;17.50;;;;;;;1.81;44.46;100122.19;7681995;32;39410;-69
2022/03/07 07:24:49;;;;;;;34.42;17.58;;;;;;;2.09;44.00;100115.78;7685688;32;39867;-68
2022/03/07 07:29:06;;;;;;;29.90;18.08;;;;;;;1.95;44.50;100132.94;7685641;32;38057;-68
2022/03/07 07:33:22;;;;;;;30.15;17.37;;;;;;;1.88;44.52;100144.53;7685823;32;37197;-69
2022/03/07 07:37:39;;;;;;;30.35;17.02;;;;;;;2.16;43.68;100138.13;7684404;32;39490;-69
2022/03/07 07:41:56;;;;;;;33.60;18.12;;;;;;;1.95;44.02;100138.31;7685441;32;39978;-69
2022/03/07 07:46:12;;;;;;;34.22;18.25;;;;;;;1.76;44.29;100143.50;7685499;32;37893;-70
2022/03/07 07:50:28;;;;;;;38.90;19.15;;;;;;;1.73;45.17;100157.34;7685290;32;38223;-70
2022/03/07 07:54:44;;;;;;;32.63;18.15;;;;;;;1.75;44.71;100152.56;7685472;32;39417;-70
2022/03/07 07:59:00;;;;;;;30.45;17.83;;;;;;;1.80;44.51;100149.28;7685216;32;40703;-69
2022/03/07 08:03:17;;;;;;;32.30;17.73;;;;;;;1.36;45.28;100150.62;7685089;32;37669;-69
2022/03/07 08:07:34;;;;;;;32.88;17.65;;;;;;;1.19;46.44;100139.41;7685053;32;37808;-70
2022/03/07 08:11:50;;;;;;;32.38;17.85;;;;;;;1.64;45.33;100142.44;7684992;32;39262;-69
2022/03/07 08:16:06;;;;;;;34.58;19.80;;;;;;;1.78;45.13;100148.66;7684705;32;40715;-69
2022/03/07 08:20:23;;;;;;;39.63;20.37;;;;;;;2.16;44.33;100143.50;7684798;32;37920;-69
2022/03/07 08:24:39;;;;;;;39.58;20.50;;;;;;;2.26;44.49;100140.41;7684666;32;37278;-69
2022/03/07 08:28:55;;;;;;;39.58;18.45;;;;;;;2.27;44.13;100147.41;7684448;32;40220;-70
2022/03/07 08:33:12;;;;;;;35.15;19.10;;;;;;;2.46;43.68;100145.72;7684216;32;39943;-69
2022/03/07 08:37:28;;;;;;;35.67;17.90;;;;;;;2.28;43.18;100154.47;7684532;32;38825;-70
2022/03/07 08:41:44;;;;;;;34.58;18.60;;;;;;;2.47;43.28;100152.78;7684563;32;37284;-70
2022/03/07 08:46:01;;;;;;;35.95;19.27;;;;;;;2.16;44.64;100156.94;7684848;32;39429;-70
2022/03/07 08:50:20;;;;;;;33.78;19.83;;;;;;;2.46;43.08;100156.50;7684494;32;39886;-70
2022/03/07 08:54:36;;;;;;;33.45;18.83;;;;;;;2.55;44.52;100147.19;7684709;32;38744;-70
2022/03/07 08:58:52;;;;;;;34.38;18.73;;;;;;;1.86;44.00;100146.59;7684654;32;37924;-70
2022/03/07 09:03:09;;;;;;;40.63;19.35;;;;;;;1.68;44.91;100143.69;7684389;32;40119;-71
2022/03/07 09:07:28;;;;;;;34.65;18.95;;;;;;;2.37;43.47;100136.22;7684480;32;40059;-70
2022/03/07 09:11:45;;;;;;;32.22;17.83;;;;;;;2.01;44.25;100140.19;7684363;32;38007;-71
2022/03/07 09:16:01;;;;;;;33.50;18.02;;;;;;;2.36;44.17;100145.31;7684379;32;37497;-69
2022/03/07 09:20:19;;;;;;;36.63;17.85;;;;;;;1.99;44.87;100150.31;7684450;32;39936;-70
2022/03/07 09:24:35;;;;;;;37.08;18.45;;;;;;;1.86;44.87;100154.66;7684486;32;39714;-70
2022/03/07 09:28:51;;;;;;;36.13;18.12;;;;;;;1.98;44.41;100137.91;7684249;32;38474;-70
2022/03/07 09:33:07;;;;;;;33.92;18.45;;;;;;;2.22;44.41;100142.66;7684201;32;37148;-69
2022/03/07 09:37:23;;;;;;;34.92;17.98;;;;;;;2.04;45.13;100127.16;7684063;32;40113;-71
2022/03/07 09:41:42;;;;;;;37.10;18.60;;;;;;;1.90;45.95;100135.41;7683994;32;40697;-70
2022/03/07 09:45:58;;;;;;;28.95;16.33;;;;;;;1.47;46.33;100148.19;7681626;32;36962;-70
2022/03/07 09:50:14;;;;;;;40.75;17.23;;;;;;;1.61;46.05;100153.59;7682164;32;37590;-70
2022/03/07 09:54:30;;;;;;;33.95;16.85;;;;;;;1.92;45.12;100139.56;7682878;32;40018;-70
2022/03/07 09:58:46;;;;;;;32.25;17.27;;;;;;;1.00;47.84;100152.59;7682744;32;39778;-71
2022/03/07 10:03:09;;;;;;;30.98;17.37;;;;;;;2.05;45.30;100141.41;7681487;32;38744;-70
2022/03/07 10:07:25;;;;;;;31.58;16.52;;;;;;;2.03;45.71;100141.63;7679363;32;37294;-71
2022/03/07 10:11:51;;;;;;;28.83;15.32;;;;;;;1.38;47.63;100148.56;7681205;32;39271;-70
2022/03/07 10:16:07;;;;;;;27.10;16.02;;;;;;;1.15;48.19;100143.56;7681220;32;40855;-71
2022/03/07 10:20:25;;;;;;;30.85;16.50;;;;;;;1.61;47.11;100138.28;7682929;32;37609;-70
2022/03/07 10:24:41;;;;;;;31.73;17.55;;;;;;;1.61;46.97;100137.47;7683192;32;36957;-71
2022/03/07 10:28:58;;;;;;;35.45;17.62;;;;;;;2.05;45.77;100127.97;7683179;32;39804;-71
2022/03/07 10:33:34;;;;;;;31.45;15.60;;;;;;;1.69;45.05;100123.81;7682891;32;40702;-71
2022/03/07 10:37:54;;;;;;;33.65;16.85;;;;;;;2.21;44.01;100115.97;7682575;32;37862;-71
2022/03/07 10:42:16;;;;;;;33.15;16.73;;;;;;;2.62;43.73;100113.00;7682697;32;37524;-70
2022/03/07 10:46:32;;;;;;;33.20;16.35;;;;;;;2.82;43.43;100106.69;7683856;32;39423;-70
2022/03/07 10:50:51;;;;;;;32.08;17.90;;;;;;;3.24;42.84;100103.59;7708969;32;39855;-70
2022/03/07 10:55:12;;;;;;;30.75;15.90;;;;;;;2.78;41.22;100100.09;7709408;32;38068;-71
2022/03/07 10:59:30;;;;;;;32.33;16.23;;;;;;;3.05;40.95;100089.19;7713171;32;35332;-71
2022/03/07 11:03:46;;;;;;;31.40;17.23;;;;;;;2.49;41.94;100086.09;7695909;32;40096;-70
2022/03/07 11:08:02;;;;;;;29.10;16.58;;;;;;;2.98;41.41;100082.00;7690523;32;40778;-70
2022/03/07 11:12:19;;;;;;;31.75;16.58;;;;;;;3.23;40.38;100080.41;7712500;32;37946;-70
2022/03/07 11:16:36;;;;;;;35.65;16.58;;;;;;;3.02;39.69;100077.00;7711151;32;37978;-69
2022/03/07 11:20:53;;;;;;;38.60;18.20;;;;;;;2.81;40.75;100078.09;7711009;32;40410;-69
2022/03/07 11:25:15;;;;;;;30.67;15.93;;;;;;;3.18;39.92;100057.63;7712175;32;39971;-69
2022/03/07 11:29:41;;;;;;;31.52;16.75;;;;;;;3.19;39.84;100050.34;7710948;32;37759;-69
2022/03/07 11:33:57;;;;;;;28.83;16.25;;;;;;;2.82;40.36;100053.66;7711591;32;37763;-68
2022/03/07 11:38:14;;;;;;;37.08;17.10;;;;;;;3.24;40.43;100042.44;7711899;32;39143;-69
2022/03/07 11:42:36;;;;;;;32.53;16.65;;;;;;;3.59;39.60;100050.09;7711850;32;40824;-70
2022/03/07 11:46:52;;;;;;;33.95;18.80;;;;;;;3.82;38.83;100037.88;7712136;32;37960;-69
2022/03/07 11:51:20;;;;;;;32.17;17.35;;;;;;;3.32;39.29;100042.19;7708802;32;38138;-69
2022/03/07 11:55:50;;;;;;;29.23;17.12;;;;;;;3.13;39.70;100043.97;7711904;32;40123;-70
2022/03/07 12:00:21;;;;;;;30.05;16.77;;;;;;;3.23;39.70;100030.03;7711616;32;40754;-69
2022/03/07 12:04:45;;;;;;;27.13;15.55;;;;;;;4.08;38.09;100028.69;7710173;32;39213;-69
2022/03/07 12:09:01;;;;;;;26.83;15.02;;;;;;;4.24;37.89;100024.56;7710129;32;37563;-69
2022/03/07 12:13:17;;;;;;;24.63;14.63;;;;;;;4.54;36.79;100011.16;7689072;32;39798;-70
2022/03/07 12:17:33;;;;;;;27.55;15.18;;;;;;;4.62;35.86;100012.72;7684840;32;40720;-69
2022/03/07 12:21:50;;;;;;;31.17;15.55;;;;;;;4.61;35.70;100014.59;7684751;32;38042;-70
2022/03/07 12:26:08;;;;;;;25.08;14.57;;;;;;;4.63;35.79;99998.16;7685090;32;35701;-69
2022/03/07 12:30:25;;;;;;;29.42;15.15;;;;;;;5.06;35.18;99999.88;7684704;32;39257;-68
2022/03/07 12:34:41;;;;;;;29.90;15.57;;;;;;;4.79;34.86;100002.94;7710364;32;39755;-70
2022/03/07 12:39:00;;;;;;;32.30;15.73;;;;;;;4.86;34.67;100003.69;7711505;32;37939;-70
2022/03/07 12:43:16;;;;;;;27.92;15.13;;;;;;;5.06;34.66;99994.47;7711646;32;36264;-69
2022/03/07 12:47:35;;;;;;;24.85;14.38;;;;;;;4.99;35.02;99991.03;7711517;32;40038;-69
2022/03/07 12:51:51;;;;;;;29.92;16.25;;;;;;;5.10;34.45;99997.53;7708420;32;40741;-70
2022/03/07 12:56:07;;;;;;;32.90;17.23;;;;;;;5.25;34.31;100006.84;7699690;32;38772;-70
2022/03/07 13:00:24;;;;;;;39.03;16.87;;;;;;;5.09;34.42;100002.13;7709462;32;37286;-71
2022/03/07 13:04:40;;;;;;;31.92;16.80;;;;;;;4.60;33.97;100001.31;7686589;32;40008;-71
2022/03/07 13:08:58;;;;;;;30.90;16.23;;;;;;;4.76;34.67;100003.41;7704366;32;40703;-71
2022/03/07 13:13:14;;;;;;;32.83;15.57;;;;;;;4.79;34.74;100008.34;7704072;32;38042;-70
2022/03/07 13:17:30;;;;;;;29.35;16.62;;;;;;;4.89;34.80;99999.69;7686778;32;38046;-70
2022/03/07 13:21:47;;;;;;;27.70;15.90;;;;;;;4.96;34.39;100002.31;7682360;32;39322;-69
2022/03/07 13:26:13;;;;;;;28.98;15.68;;;;;;;5.18;34.07;100006.13;7683415;32;39708;-70
2022/03/07 13:30:35;;;;;;;34.55;16.50;;;;;;;5.27;33.68;99993.91;7687613;32;38682;-71
2022/03/07 13:34:54;;;;;;;28.45;16.98;;;;;;;5.18;33.33;99995.31;7698255;32;37267;-71
2022/03/07 13:39:25;;;;;;;31.55;15.82;;;;;;;5.32;33.00;99989.72;7683615;32;37950;-72
2022/03/07 13:43:41;;;;;;;30.50;15.88;;;;;;;5.82;32.86;99983.88;7699069;32;39635;-71
2022/03/07 13:48:11;;;;;;;28.23;16.85;;;;;;;6.85;31.05;99986.03;7705816;32;38692;-71
2022/03/07 13:52:33;;;;;;;28.42;16.58;;;;;;;7.27;30.13;99977.56;7698173;32;37082;-71
2022/03/07 13:56:49;;;;;;;32.20;16.85;;;;;;;7.51;28.84;99978.22;7707033;32;39039;-71
2022/03/07 14:01:11;;;;;;;30.67;17.23;;;;;;;7.50;28.52;99980.13;7700951;32;39972;-71
2022/03/07 14:05:54;;;;;;;25.88;15.85;;;;;;;7.33;28.50;99977.41;7684177;32;39377;-71
2022/03/07 14:10:17;;;;;;;32.78;19.40;;;;;;;6.95;29.04;99983.50;7688179;32;37290;-71
2022/03/07 14:14:33;;;;;;;30.70;17.08;;;;;;;6.34;30.20;99983.13;7704040;32;39491;-70
2022/03/07 14:18:51;;;;;;;29.98;17.00;;;;;;;6.62;29.75;99990.47;7682586;32;40803;-71
2022/03/07 14:23:09;;;;;;;45.50;26.83;;;;;;;6.55;29.36;99979.78;7682827;32;37982;-70
2022/03/07 14:27:30;;;;;;;29.70;17.17;;;;;;;6.16;30.18;99984.13;7682483;32;37250;-71
2022/03/07 14:31:46;;;;;;;69.72;19.37;;;;;;;5.75;31.21;99984.00;7684108;32;39484;-70
2022/03/07 14:36:03;;;;;;;28.55;16.60;;;;;;;5.58;31.00;99977.63;7684935;32;40158;-71
2022/03/07 14:40:20;;;;;;;30.80;16.60;;;;;;;6.22;29.91;99975.03;7686564;32;38022;-71
2022/03/07 14:44:36;;;;;;;34.28;17.45;;;;;;;6.68;29.01;99965.13;7682283;32;38013;-71
2022/03/07 14:48:54;;;;;;;30.95;16.83;;;;;;;6.53;29.64;99976.47;7685082;32;39393;-71
2022/03/07 14:53:10;;;;;;;29.98;16.75;;;;;;;6.93;29.54;99966.66;7710197;32;41306;-71
2022/03/07 14:57:26;;;;;;;31.30;17.12;;;;;;;7.55;27.96;99967.69;7686747;32;37870;-71
2022/03/07 15:01:43;;;;;;;26.42;15.27;;;;;;;7.29;28.37;99970.81;7699434;32;38130;-71
2022/03/07 15:05:59;;;;;;;29.85;16.25;;;;;;;7.75;27.29;99968.00;7710644;32;37928;-69
2022/03/07 15:10:17;;;;;;;30.77;16.75;;;;;;;8.25;26.74;99967.06;7712264;32;40771;-69
2022/03/07 15:14:33;;;;;;;31.67;16.73;;;;;;;8.60;25.50;99963.16;7702747;32;37657;-69
2022/03/07 15:18:50;;;;;;;38.70;21.77;;;;;;;9.03;25.46;99961.44;7685210;32;36868;-69
2022/03/07 15:23:06;;;;;;;28.42;16.37;;;;;;;9.33;24.52;99960.09;7685526;32;39286;-70
2022/03/07 15:27:23;;;;;;;34.03;16.48;;;;;;;9.60;24.41;99964.66;7685171;32;40857;-70
2022/03/07 15:31:41;;;;;;;42.38;19.65;;;;;;;9.66;23.57;99962.78;7698570;32;38450;-70
2022/03/07 15:35:57;;;;;;;36.20;17.73;;;;;;;9.73;23.83;99969.66;7698730;32;37825;-70
2022/03/07 15:40:16;;;;;;;28.42;17.15;;;;;;;9.82;23.89;99977.34;7684708;32;40077;-69
2022/03/07 15:44:33;;;;;;;28.42;16.00;;;;;;;9.15;24.87;99976.78;7684074;32;40022;-69
2022/03/07 15:48:49;;;;;;;31.42;16.90;;;;;;;9.09;25.21;99980.53;7684733;32;37570;-69
2022/03/07 15:53:05;;;;;;;26.62;15.77;;;;;;;9.59;24.62;99985.59;7685233;32;36939;-70
2022/03/07 15:57:22;;;;;;;31.85;15.82;;;;;;;9.51;23.91;99983.34;7699302;32;39031;-70
2022/03/07 16:01:40;;;;;;;32.30;17.48;;;;;;;8.98;24.78;99994.03;7710110;32;39890;-71
2022/03/07 16:05:57;;;;;;;33.70;17.87;;;;;;;8.69;25.42;99998.88;7711410;32;37926;-71
2022/03/07 16:10:13;;;;;;;38.55;18.85;;;;;;;8.54;25.47;100002.25;7711503;32;38170;-71
2022/03/07 16:14:29;;;;;;;33.15;18.85;;;;;;;8.12;25.79;100008.16;7711708;32;37468;-71
2022/03/07 16:18:47;;;;;;;35.53;18.25;;;;;;;8.10;25.96;100013.03;7692366;32;39997;-71
2022/03/07 16:23:03;;;;;;;31.25;17.80;;;;;;;7.45;27.28;100020.72;7684630;32;39245;-71
2022/03/07 16:27:19;;;;;;;32.30;15.88;;;;;;;7.28;27.73;100026.13;7684520;32;37689;-71
2022/03/07 16:31:36;;;;;;;26.65;15.18;;;;;;;7.09;28.16;100028.22;7698561;32;40230;-71
2022/03/07 16:35:54;;;;;;;34.13;15.73;;;;;;;6.70;28.73;100041.56;7710984;32;40824;-71
2022/03/07 16:40:11;;;;;;;30.90;17.52;;;;;;;6.28;29.41;100044.50;7688562;32;38606;-71
2022/03/07 16:44:27;;;;;;;35.28;19.98;;;;;;;6.27;29.55;100055.56;7705242;32;36857;-70
2022/03/07 16:48:43;;;;;;;49.55;25.73;;;;;;;5.91;30.19;100068.22;7703077;32;255953;-71
2022/03/07 16:53:01;;;;;;;42.60;23.35;;;;;;;5.75;30.60;100080.56;7710715;32;40847;-71
2022/03/07 16:57:17;;;;;;;43.63;23.02;;;;;;;5.32;31.44;100087.84;7710826;32;38001;-70
2022/03/07 17:01:34;;;;;;;44.35;21.77;;;;;;;5.24;31.57;100094.44;7698537;32;38508;-71
2022/03/07 17:05:50;;;;;;;34.55;19.25;;;;;;;4.76;32.75;100100.66;7710453;32;40091;-71
2022/03/07 17:10:10;;;;;;;27.55;16.73;;;;;;;4.67;32.87;100107.38;7710948;32;38597;-71
2022/03/07 17:14:26;;;;;;;30.37;17.45;;;;;;;4.37;33.32;100110.81;7710158;32;37849;-70
2022/03/07 17:18:42;;;;;;;29.00;15.98;;;;;;;4.29;33.74;100116.50;7690494;32;37297;-70
2022/03/07 17:22:59;;;;;;;25.67;15.23;;;;;;;3.80;34.73;100126.28;7683872;32;40197;-70
2022/03/07 17:27:16;;;;;;;32.30;16.65;;;;;;;3.77;34.95;100130.22;7683721;32;40834;-71
2022/03/07 17:31:32;;;;;;;26.27;16.23;;;;;;;3.66;35.12;100136.34;7698603;32;37994;-71
2022/03/07 17:35:49;;;;;;;30.48;16.08;;;;;;;3.57;35.30;100141.16;7710001;32;37330;-70
2022/03/07 17:40:07;;;;;;;29.00;15.15;;;;;;;3.11;36.32;100137.66;7687086;32;39039;-71
2022/03/07 17:44:23;;;;;;;29.17;16.10;;;;;;;3.25;35.96;100151.06;7683474;32;41255;-71
2022/03/07 17:48:41;;;;;;;35.47;15.60;;;;;;;3.09;36.37;100149.72;7683285;32;37977;-70
2022/03/07 17:52:57;;;;;;;31.08;15.20;;;;;;;3.15;36.38;100159.59;7683292;32;37150;-70
2022/03/07 17:57:13;;;;;;;31.37;16.33;;;;;;;3.18;36.40;100164.56;7683266;32;39035;-69
2022/03/07 18:01:30;;;;;;;26.45;15.13;;;;;;;3.04;36.45;100168.38;7686663;32;40520;-71
2022/03/07 18:05:46;;;;;;;26.77;15.40;;;;;;;3.36;35.58;100167.41;7708447;32;37890;-70
2022/03/07 18:10:04;;;;;;;30.35;16.10;;;;;;;3.44;35.82;100174.41;7709866;32;37332;-70
2022/03/07 18:14:20;;;;;;;27.90;16.25;;;;;;;3.46;35.91;100179.56;7709486;32;39366;-71
2022/03/07 18:18:36;;;;;;;32.85;15.68;;;;;;;3.38;36.12;100180.63;7691903;32;40953;-72
2022/03/07 18:22:52;;;;;;;28.80;15.35;;;;;;;3.30;36.43;100194.38;7709632;32;38148;-71
2022/03/07 18:27:08;;;;;;;23.92;14.85;;;;;;;2.89;37.05;100201.75;7708694;32;37984;-71
2022/03/07 18:31:24;;;;;;;32.38;16.10;;;;;;;2.62;37.80;100200.97;7694515;32;39298;-70
2022/03/07 18:35:40;;;;;;;27.48;15.15;;;;;;;2.48;38.09;100208.25;7681184;32;39740;-71
2022/03/07 18:39:56;;;;;;;29.45;15.07;;;;;;;2.52;37.87;100214.03;7686516;32;38036;-71
2022/03/07 18:44:12;;;;;;;27.05;15.40;;;;;;;2.52;37.91;100217.56;7708639;32;36665;-71
2022/03/07 18:48:28;;;;;;;32.60;15.65;;;;;;;2.65;37.56;100219.41;7708673;32;39430;-71
2022/03/07 18:52:49;;;;;;;26.92;15.27;;;;;;;2.69;37.55;100220.66;7708818;32;40048;-71
2022/03/07 18:57:05;;;;;;;36.92;17.42;;;;;;;2.47;37.90;100230.81;7708323;32;37850;-71
2022/03/07 19:01:22;;;;;;;36.83;19.85;;;;;;;2.54;39.43;100237.03;7691089;32;38084;-70
2022/03/07 19:05:39;;;;;;;31.55;16.87;;;;;;;2.50;41.17;100243.87;7691001;32;39375;-71
2022/03/07 19:09:55;;;;;;;33.67;18.42;;;;;;;2.21;41.62;100245.94;7656597;32;39609;-70
2022/03/07 19:14:11;;;;;;;38.58;20.55;;;;;;;2.06;41.83;100261.44;7681949;32;38433;-71
2022/03/07 19:18:27;;;;;;;44.28;20.88;;;;;;;2.25;41.49;100252.53;7683328;32;37597;-69
2022/03/07 19:22:44;;;;;;;37.50;20.83;;;;;;;2.26;41.47;100264.16;7685817;32;39391;-71
2022/03/07 19:27:00;;;;;;;40.45;20.58;;;;;;;2.30;41.39;100253.81;7684505;32;40813;-70
2022/03/07 19:31:16;;;;;;;36.03;19.60;;;;;;;2.03;41.74;100268.03;7685275;32;38178;-71
2022/03/07 19:35:32;;;;;;;38.25;20.45;;;;;;;2.27;40.87;100259.59;7685245;32;37370;-71
2022/03/07 19:39:48;;;;;;;39.05;18.90;;;;;;;2.33;40.42;100264.97;7685027;32;39241;-69
2022/03/07 19:44:04;;;;;;;39.22;19.90;;;;;;;1.88;40.91;100284.34;7686771;32;39900;-70